sensor_id;sensor_type;location;lat;lon;timestamp;P1;durP1;ratioP1;P2;durP2;ratioP2
5995;SDS011;3026;53.612;7.278;2022-10-22T00:01:37;14.63;;;10.90;;
5995;SDS011;3026;53.612;7.278;2022-10-22T00:04:05;18.10;;;11.93;;
5995;SDS011;3026;53.612;7.278;2022-10-22T00:06:32;14.90;;;11.97;;
5995;SDS011;3026;53.612;7.278;2022-10-22T00:09:00;14.07;;;11.13;;
5995;SDS011;3026;53.612;7.278;2022-10-22T00:11:27;15.03;;;11.43;;
5995;SDS011;3026;53.612;7.278;2022-10-22T00:13:54;14.73;;;12.20;;
5995;SDS011;3026;53.612;7.278;2022-10-22T00:16:21;15.77;;;11.37;;
5995;SDS011;3026;53.612;7.278;2022-10-22T00:18:50;14.83;;;10.83;;
5995;SDS011;3026;53.612;7.278;2022-10-22T00:21:17;13.70;;;11.17;;
5995;SDS011;3026;53.612;7.278;2022-10-22T00:23:45;14.27;;;10.00;;
5995;SDS011;3026;53.612;7.278;2022-10-22T00:26:12;15.97;;;10.77;;
5995;SDS011;3026;53.612;7.278;2022-10-22T00:28:39;15.03;;;10.47;;
5995;SDS011;3026;53.612;7.278;2022-10-22T00:31:06;14.70;;;10.00;;
5995;SDS011;3026;53.612;7.278;2022-10-22T00:33:33;13.77;;;10.20;;
5995;SDS011;3026;53.612;7.278;2022-10-22T00:36:02;14.53;;;10.10;;
5995;SDS011;3026;53.612;7.278;2022-10-22T00:38:29;12.60;;;9.47;;
5995;SDS011;3026;53.612;7.278;2022-10-22T00:40:56;11.70;;;9.53;;
5995;SDS011;3026;53.612;7.278;2022-10-22T00:43:23;13.13;;;9.77;;
5995;SDS011;3026;53.612;7.278;2022-10-22T00:45:50;15.43;;;10.27;;
5995;SDS011;3026;53.612;7.278;2022-10-22T00:48:18;14.03;;;9.60;;
5995;SDS011;3026;53.612;7.278;2022-10-22T00:50:48;14.53;;;10.27;;
5995;SDS011;3026;53.612;7.278;2022-10-22T00:53:21;12.47;;;9.50;;
5995;SDS011;3026;53.612;7.278;2022-10-22T00:55:52;15.00;;;9.10;;
5995;SDS011;3026;53.612;7.278;2022-10-22T00:58:21;12.07;;;9.50;;
5995;SDS011;3026;53.612;7.278;2022-10-22T01:00:52;12.83;;;10.13;;
5995;SDS011;3026;53.612;7.278;2022-10-22T01:03:20;14.47;;;10.83;;
5995;SDS011;3026;53.612;7.278;2022-10-22T01:05:50;12.73;;;9.67;;
5995;SDS011;3026;53.612;7.278;2022-10-22T01:08:24;13.30;;;9.90;;
5995;SDS011;3026;53.612;7.278;2022-10-22T01:10:57;12.80;;;9.80;;
5995;SDS011;3026;53.612;7.278;2022-10-22T01:13:35;15.80;;;10.07;;
5995;SDS011;3026;53.612;7.278;2022-10-22T01:16:14;11.27;;;9.77;;
5995;SDS011;3026;53.612;7.278;2022-10-22T01:18:53;13.07;;;9.90;;
5995;SDS011;3026;53.612;7.278;2022-10-22T01:21:30;14.53;;;9.80;;
5995;SDS011;3026;53.612;7.278;2022-10-22T01:27:10;12.40;;;9.77;;
5995;SDS011;3026;53.612;7.278;2022-10-22T01:29:47;13.63;;;9.97;;
5995;SDS011;3026;53.612;7.278;2022-10-22T01:32:18;14.30;;;9.60;;
5995;SDS011;3026;53.612;7.278;2022-10-22T01:34:48;17.53;;;9.73;;
5995;SDS011;3026;53.612;7.278;2022-10-22T01:37:20;14.20;;;10.20;;
5995;SDS011;3026;53.612;7.278;2022-10-22T01:39:50;14.50;;;10.47;;
5995;SDS011;3026;53.612;7.278;2022-10-22T01:42:18;15.80;;;9.93;;
5995;SDS011;3026;53.612;7.278;2022-10-22T01:44:46;12.30;;;9.50;;
5995;SDS011;3026;53.612;7.278;2022-10-22T01:47:16;14.03;;;9.43;;
5995;SDS011;3026;53.612;7.278;2022-10-22T01:49:55;13.43;;;9.37;;
5995;SDS011;3026;53.612;7.278;2022-10-22T01:52:48;14.90;;;9.77;;
5995;SDS011;3026;53.612;7.278;2022-10-22T01:55:24;13.07;;;9.93;;
5995;SDS011;3026;53.612;7.278;2022-10-22T01:58:01;12.90;;;9.70;;
5995;SDS011;3026;53.612;7.278;2022-10-22T02:00:37;12.40;;;10.20;;
5995;SDS011;3026;53.612;7.278;2022-10-22T02:03:11;12.73;;;9.73;;
5995;SDS011;3026;53.612;7.278;2022-10-22T02:05:42;17.03;;;10.13;;
5995;SDS011;3026;53.612;7.278;2022-10-22T02:08:14;13.00;;;9.63;;
5995;SDS011;3026;53.612;7.278;2022-10-22T02:10:45;17.87;;;10.00;;
5995;SDS011;3026;53.612;7.278;2022-10-22T02:13:15;15.93;;;9.23;;
5995;SDS011;3026;53.612;7.278;2022-10-22T02:15:46;15.97;;;9.30;;
5995;SDS011;3026;53.612;7.278;2022-10-22T02:18:17;15.30;;;11.03;;
5995;SDS011;3026;53.612;7.278;2022-10-22T02:20:47;10.67;;;9.07;;
5995;SDS011;3026;53.612;7.278;2022-10-22T02:23:15;10.60;;;8.30;;
5995;SDS011;3026;53.612;7.278;2022-10-22T02:25:43;14.93;;;9.33;;
5995;SDS011;3026;53.612;7.278;2022-10-22T02:28:15;16.20;;;10.03;;
5995;SDS011;3026;53.612;7.278;2022-10-22T02:30:52;10.63;;;9.53;;
5995;SDS011;3026;53.612;7.278;2022-10-22T02:33:27;14.77;;;9.60;;
5995;SDS011;3026;53.612;7.278;2022-10-22T02:35:57;12.10;;;9.03;;
5995;SDS011;3026;53.612;7.278;2022-10-22T02:38:26;12.97;;;9.80;;
5995;SDS011;3026;53.612;7.278;2022-10-22T02:40:54;14.07;;;10.27;;
5995;SDS011;3026;53.612;7.278;2022-10-22T02:43:22;14.07;;;9.43;;
5995;SDS011;3026;53.612;7.278;2022-10-22T02:45:51;12.43;;;9.50;;
5995;SDS011;3026;53.612;7.278;2022-10-22T02:48:19;14.60;;;9.10;;
5995;SDS011;3026;53.612;7.278;2022-10-22T02:50:46;15.80;;;9.23;;
5995;SDS011;3026;53.612;7.278;2022-10-22T02:53:13;12.97;;;8.67;;
5995;SDS011;3026;53.612;7.278;2022-10-22T02:55:39;11.20;;;8.40;;
5995;SDS011;3026;53.612;7.278;2022-10-22T02:58:06;12.67;;;9.43;;
5995;SDS011;3026;53.612;7.278;2022-10-22T03:00:33;11.90;;;9.57;;
5995;SDS011;3026;53.612;7.278;2022-10-22T03:03:01;10.47;;;9.37;;
5995;SDS011;3026;53.612;7.278;2022-10-22T03:05:28;13.67;;;9.07;;
5995;SDS011;3026;53.612;7.278;2022-10-22T03:07:55;11.13;;;9.33;;
5995;SDS011;3026;53.612;7.278;2022-10-22T03:10:22;12.60;;;8.67;;
5995;SDS011;3026;53.612;7.278;2022-10-22T03:12:49;13.03;;;8.60;;
5995;SDS011;3026;53.612;7.278;2022-10-22T03:15:16;10.47;;;8.53;;
5995;SDS011;3026;53.612;7.278;2022-10-22T03:17:44;10.83;;;8.83;;
5995;SDS011;3026;53.612;7.278;2022-10-22T03:20:12;12.47;;;9.13;;
5995;SDS011;3026;53.612;7.278;2022-10-22T03:22:39;12.30;;;8.67;;
5995;SDS011;3026;53.612;7.278;2022-10-22T03:25:10;11.87;;;9.37;;
5995;SDS011;3026;53.612;7.278;2022-10-22T03:27:41;12.73;;;9.50;;
5995;SDS011;3026;53.612;7.278;2022-10-22T03:30:09;18.60;;;9.07;;
5995;SDS011;3026;53.612;7.278;2022-10-22T03:32:36;11.97;;;9.53;;
5995;SDS011;3026;53.612;7.278;2022-10-22T03:35:04;13.57;;;9.63;;
5995;SDS011;3026;53.612;7.278;2022-10-22T03:37:33;12.93;;;9.70;;
5995;SDS011;3026;53.612;7.278;2022-10-22T03:40:01;13.17;;;8.83;;
5995;SDS011;3026;53.612;7.278;2022-10-22T03:42:29;11.63;;;9.13;;
5995;SDS011;3026;53.612;7.278;2022-10-22T03:44:56;14.57;;;10.23;;
5995;SDS011;3026;53.612;7.278;2022-10-22T03:47:23;14.03;;;9.43;;
5995;SDS011;3026;53.612;7.278;2022-10-22T03:49:50;9.97;;;8.37;;
5995;SDS011;3026;53.612;7.278;2022-10-22T03:52:17;11.27;;;8.53;;
5995;SDS011;3026;53.612;7.278;2022-10-22T03:54:46;12.43;;;9.40;;
5995;SDS011;3026;53.612;7.278;2022-10-22T03:57:13;16.13;;;9.03;;
5995;SDS011;3026;53.612;7.278;2022-10-22T03:59:42;12.17;;;9.13;;
5995;SDS011;3026;53.612;7.278;2022-10-22T04:02:11;16.00;;;10.07;;
5995;SDS011;3026;53.612;7.278;2022-10-22T04:04:39;16.53;;;9.60;;
5995;SDS011;3026;53.612;7.278;2022-10-22T04:07:06;15.00;;;9.70;;
5995;SDS011;3026;53.612;7.278;2022-10-22T04:09:33;13.47;;;9.20;;
5995;SDS011;3026;53.612;7.278;2022-10-22T04:12:02;11.77;;;9.30;;
5995;SDS011;3026;53.612;7.278;2022-10-22T04:14:32;14.70;;;9.40;;
5995;SDS011;3026;53.612;7.278;2022-10-22T04:16:59;12.03;;;9.07;;
5995;SDS011;3026;53.612;7.278;2022-10-22T04:19:26;11.00;;;9.10;;
5995;SDS011;3026;53.612;7.278;2022-10-22T04:21:53;13.93;;;9.03;;
5995;SDS011;3026;53.612;7.278;2022-10-22T04:24:23;15.07;;;9.40;;
5995;SDS011;3026;53.612;7.278;2022-10-22T04:26:52;12.17;;;8.80;;
5995;SDS011;3026;53.612;7.278;2022-10-22T04:29:21;11.43;;;8.77;;
5995;SDS011;3026;53.612;7.278;2022-10-22T04:31:49;12.27;;;8.80;;
5995;SDS011;3026;53.612;7.278;2022-10-22T04:36:43;13.17;;;9.47;;
5995;SDS011;3026;53.612;7.278;2022-10-22T04:39:10;16.10;;;9.23;;
5995;SDS011;3026;53.612;7.278;2022-10-22T04:41:38;15.37;;;8.47;;
5995;SDS011;3026;53.612;7.278;2022-10-22T04:44:05;11.17;;;8.77;;
5995;SDS011;3026;53.612;7.278;2022-10-22T04:46:34;11.07;;;8.03;;
5995;SDS011;3026;53.612;7.278;2022-10-22T04:49:01;10.90;;;8.23;;
5995;SDS011;3026;53.612;7.278;2022-10-22T04:51:29;11.83;;;9.10;;
5995;SDS011;3026;53.612;7.278;2022-10-22T04:53:56;11.30;;;8.97;;
5995;SDS011;3026;53.612;7.278;2022-10-22T04:56:23;10.67;;;8.27;;
5995;SDS011;3026;53.612;7.278;2022-10-22T04:58:52;16.77;;;10.20;;
5995;SDS011;3026;53.612;7.278;2022-10-22T05:01:20;13.53;;;8.43;;
5995;SDS011;3026;53.612;7.278;2022-10-22T05:03:50;13.00;;;8.53;;
5995;SDS011;3026;53.612;7.278;2022-10-22T05:06:19;12.60;;;8.60;;
5995;SDS011;3026;53.612;7.278;2022-10-22T05:08:51;12.90;;;9.43;;
5995;SDS011;3026;53.612;7.278;2022-10-22T05:11:19;13.00;;;8.83;;
5995;SDS011;3026;53.612;7.278;2022-10-22T05:13:48;18.33;;;9.80;;
5995;SDS011;3026;53.612;7.278;2022-10-22T05:16:15;10.80;;;8.43;;
5995;SDS011;3026;53.612;7.278;2022-10-22T05:18:42;11.93;;;8.50;;
5995;SDS011;3026;53.612;7.278;2022-10-22T05:21:12;21.10;;;10.37;;
5995;SDS011;3026;53.612;7.278;2022-10-22T05:23:40;14.63;;;9.40;;
5995;SDS011;3026;53.612;7.278;2022-10-22T05:26:09;9.97;;;8.40;;
5995;SDS011;3026;53.612;7.278;2022-10-22T05:28:37;18.33;;;9.33;;
5995;SDS011;3026;53.612;7.278;2022-10-22T05:31:05;11.27;;;8.70;;
5995;SDS011;3026;53.612;7.278;2022-10-22T05:33:33;11.90;;;8.50;;
5995;SDS011;3026;53.612;7.278;2022-10-22T05:36:01;19.47;;;10.30;;
5995;SDS011;3026;53.612;7.278;2022-10-22T05:38:31;13.97;;;9.27;;
5995;SDS011;3026;53.612;7.278;2022-10-22T05:40:59;15.77;;;9.33;;
5995;SDS011;3026;53.612;7.278;2022-10-22T05:43:27;13.87;;;8.63;;
5995;SDS011;3026;53.612;7.278;2022-10-22T05:45:54;15.57;;;9.33;;
5995;SDS011;3026;53.612;7.278;2022-10-22T05:48:21;11.83;;;8.43;;
5995;SDS011;3026;53.612;7.278;2022-10-22T05:50:47;10.77;;;7.93;;
5995;SDS011;3026;53.612;7.278;2022-10-22T05:53:15;13.90;;;9.17;;
5995;SDS011;3026;53.612;7.278;2022-10-22T05:55:44;12.63;;;7.93;;
5995;SDS011;3026;53.612;7.278;2022-10-22T05:58:11;11.97;;;8.60;;
5995;SDS011;3026;53.612;7.278;2022-10-22T06:00:39;12.27;;;8.33;;
5995;SDS011;3026;53.612;7.278;2022-10-22T06:03:06;14.33;;;8.53;;
5995;SDS011;3026;53.612;7.278;2022-10-22T06:05:33;13.70;;;8.97;;
5995;SDS011;3026;53.612;7.278;2022-10-22T06:08:01;9.67;;;8.57;;
5995;SDS011;3026;53.612;7.278;2022-10-22T06:10:28;14.40;;;8.80;;
5995;SDS011;3026;53.612;7.278;2022-10-22T06:12:57;13.40;;;9.80;;
5995;SDS011;3026;53.612;7.278;2022-10-22T06:15:25;16.37;;;11.00;;
5995;SDS011;3026;53.612;7.278;2022-10-22T06:17:52;16.77;;;10.93;;
5995;SDS011;3026;53.612;7.278;2022-10-22T06:20:19;16.27;;;9.77;;
5995;SDS011;3026;53.612;7.278;2022-10-22T06:22:46;14.50;;;8.70;;
5995;SDS011;3026;53.612;7.278;2022-10-22T06:25:13;14.20;;;8.80;;
5995;SDS011;3026;53.612;7.278;2022-10-22T06:27:40;11.60;;;8.60;;
5995;SDS011;3026;53.612;7.278;2022-10-22T06:30:09;11.93;;;8.17;;
5995;SDS011;3026;53.612;7.278;2022-10-22T06:32:36;11.63;;;8.20;;
5995;SDS011;3026;53.612;7.278;2022-10-22T06:35:04;10.83;;;8.83;;
5995;SDS011;3026;53.612;7.278;2022-10-22T06:37:31;14.57;;;9.07;;
5995;SDS011;3026;53.612;7.278;2022-10-22T06:39:58;13.17;;;8.67;;
5995;SDS011;3026;53.612;7.278;2022-10-22T06:42:28;11.63;;;9.07;;
5995;SDS011;3026;53.612;7.278;2022-10-22T06:44:58;14.73;;;8.50;;
5995;SDS011;3026;53.612;7.278;2022-10-22T06:47:26;11.77;;;8.17;;
5995;SDS011;3026;53.612;7.278;2022-10-22T06:49:55;11.53;;;8.37;;
5995;SDS011;3026;53.612;7.278;2022-10-22T06:52:22;15.10;;;8.57;;
5995;SDS011;3026;53.612;7.278;2022-10-22T06:54:49;14.60;;;9.00;;
5995;SDS011;3026;53.612;7.278;2022-10-22T06:57:16;13.20;;;8.40;;
5995;SDS011;3026;53.612;7.278;2022-10-22T06:59:44;10.93;;;8.23;;
5995;SDS011;3026;53.612;7.278;2022-10-22T07:02:12;11.63;;;8.43;;
5995;SDS011;3026;53.612;7.278;2022-10-22T07:04:40;13.07;;;8.53;;
5995;SDS011;3026;53.612;7.278;2022-10-22T07:07:07;12.63;;;8.97;;
5995;SDS011;3026;53.612;7.278;2022-10-22T07:09:34;14.87;;;9.00;;
5995;SDS011;3026;53.612;7.278;2022-10-22T07:12:01;11.03;;;8.67;;
5995;SDS011;3026;53.612;7.278;2022-10-22T07:14:28;14.40;;;8.70;;
5995;SDS011;3026;53.612;7.278;2022-10-22T07:16:55;14.40;;;8.60;;
5995;SDS011;3026;53.612;7.278;2022-10-22T07:19:22;13.00;;;8.50;;
5995;SDS011;3026;53.612;7.278;2022-10-22T07:21:50;14.40;;;8.77;;
5995;SDS011;3026;53.612;7.278;2022-10-22T07:24:18;12.97;;;8.40;;
5995;SDS011;3026;53.612;7.278;2022-10-22T07:26:44;14.13;;;8.63;;
5995;SDS011;3026;53.612;7.278;2022-10-22T07:29:12;12.20;;;7.83;;
5995;SDS011;3026;53.612;7.278;2022-10-22T07:31:40;16.57;;;9.30;;
5995;SDS011;3026;53.612;7.278;2022-10-22T07:34:07;15.63;;;9.20;;
5995;SDS011;3026;53.612;7.278;2022-10-22T07:36:35;17.93;;;10.40;;
5995;SDS011;3026;53.612;7.278;2022-10-22T07:39:03;14.03;;;9.50;;
5995;SDS011;3026;53.612;7.278;2022-10-22T07:41:30;14.77;;;8.57;;
5995;SDS011;3026;53.612;7.278;2022-10-22T07:43:58;12.37;;;8.90;;
5995;SDS011;3026;53.612;7.278;2022-10-22T07:46:25;14.93;;;8.33;;
5995;SDS011;3026;53.612;7.278;2022-10-22T07:48:52;12.17;;;8.47;;
5995;SDS011;3026;53.612;7.278;2022-10-22T07:51:20;13.07;;;8.67;;
5995;SDS011;3026;53.612;7.278;2022-10-22T07:53:46;13.17;;;8.67;;
5995;SDS011;3026;53.612;7.278;2022-10-22T07:56:15;12.47;;;9.07;;
5995;SDS011;3026;53.612;7.278;2022-10-22T07:58:42;11.63;;;8.53;;
5995;SDS011;3026;53.612;7.278;2022-10-22T08:01:09;16.87;;;8.47;;
5995;SDS011;3026;53.612;7.278;2022-10-22T08:03:36;12.00;;;8.30;;
5995;SDS011;3026;53.612;7.278;2022-10-22T08:06:02;14.33;;;8.50;;
5995;SDS011;3026;53.612;7.278;2022-10-22T08:08:30;17.70;;;8.37;;
5995;SDS011;3026;53.612;7.278;2022-10-22T08:10:58;13.87;;;8.50;;
5995;SDS011;3026;53.612;7.278;2022-10-22T08:13:27;15.07;;;8.80;;
5995;SDS011;3026;53.612;7.278;2022-10-22T08:15:56;14.77;;;7.87;;
5995;SDS011;3026;53.612;7.278;2022-10-22T08:18:30;12.73;;;7.90;;
5995;SDS011;3026;53.612;7.278;2022-10-22T08:24:22;15.07;;;8.97;;
5995;SDS011;3026;53.612;7.278;2022-10-22T08:41:51;16.70;;;8.13;;
5995;SDS011;3026;53.612;7.278;2022-10-22T08:44:30;18.37;;;8.33;;
5995;SDS011;3026;53.612;7.278;2022-10-22T08:47:13;16.87;;;8.20;;
5995;SDS011;3026;53.612;7.278;2022-10-22T08:49:47;17.23;;;8.63;;
5995;SDS011;3026;53.612;7.278;2022-10-22T09:16:10;13.13;;;6.20;;
5995;SDS011;3026;53.612;7.278;2022-10-22T09:18:42;12.27;;;5.77;;
5995;SDS011;3026;53.612;7.278;2022-10-22T09:21:22;11.50;;;6.27;;
5995;SDS011;3026;53.612;7.278;2022-10-22T09:24:04;9.67;;;5.37;;
5995;SDS011;3026;53.612;7.278;2022-10-22T09:26:38;9.53;;;5.37;;
5995;SDS011;3026;53.612;7.278;2022-10-22T09:29:12;11.97;;;5.07;;
5995;SDS011;3026;53.612;7.278;2022-10-22T09:31:46;10.10;;;5.73;;
5995;SDS011;3026;53.612;7.278;2022-10-22T09:34:18;8.70;;;5.80;;
5995;SDS011;3026;53.612;7.278;2022-10-22T09:36:46;10.70;;;6.33;;
5995;SDS011;3026;53.612;7.278;2022-10-22T09:39:21;12.27;;;5.33;;
5995;SDS011;3026;53.612;7.278;2022-10-22T09:41:50;10.97;;;5.67;;
5995;SDS011;3026;53.612;7.278;2022-10-22T09:44:20;6.47;;;5.07;;
5995;SDS011;3026;53.612;7.278;2022-10-22T09:46:56;11.93;;;6.53;;
5995;SDS011;3026;53.612;7.278;2022-10-22T09:49:23;8.50;;;6.00;;
5995;SDS011;3026;53.612;7.278;2022-10-22T09:51:59;11.10;;;6.37;;
5995;SDS011;3026;53.612;7.278;2022-10-22T09:54:36;12.50;;;6.00;;
5995;SDS011;3026;53.612;7.278;2022-10-22T09:57:12;11.27;;;5.30;;
5995;SDS011;3026;53.612;7.278;2022-10-22T09:59:46;15.67;;;6.20;;
5995;SDS011;3026;53.612;7.278;2022-10-22T10:02:26;11.10;;;5.20;;
5995;SDS011;3026;53.612;7.278;2022-10-22T10:04:55;10.27;;;5.40;;
5995;SDS011;3026;53.612;7.278;2022-10-22T10:07:23;10.20;;;5.33;;
5995;SDS011;3026;53.612;7.278;2022-10-22T10:10:13;9.40;;;5.93;;
5995;SDS011;3026;53.612;7.278;2022-10-22T10:12:59;8.97;;;5.30;;
5995;SDS011;3026;53.612;7.278;2022-10-22T10:15:36;11.97;;;5.93;;
5995;SDS011;3026;53.612;7.278;2022-10-22T10:18:16;11.07;;;5.60;;
5995;SDS011;3026;53.612;7.278;2022-10-22T10:20:54;11.87;;;5.60;;
5995;SDS011;3026;53.612;7.278;2022-10-22T10:23:34;9.20;;;4.87;;
5995;SDS011;3026;53.612;7.278;2022-10-22T10:26:16;7.87;;;5.47;;
5995;SDS011;3026;53.612;7.278;2022-10-22T10:28:56;14.37;;;5.27;;
5995;SDS011;3026;53.612;7.278;2022-10-22T10:31:51;9.83;;;4.80;;
5995;SDS011;3026;53.612;7.278;2022-10-22T10:34:33;11.07;;;5.67;;
5995;SDS011;3026;53.612;7.278;2022-10-22T10:37:11;10.17;;;4.57;;
5995;SDS011;3026;53.612;7.278;2022-10-22T10:39:51;11.23;;;5.00;;
5995;SDS011;3026;53.612;7.278;2022-10-22T10:42:42;7.80;;;4.87;;
5995;SDS011;3026;53.612;7.278;2022-10-22T10:45:16;9.00;;;5.37;;
5995;SDS011;3026;53.612;7.278;2022-10-22T10:50:55;10.47;;;4.93;;
5995;SDS011;3026;53.612;7.278;2022-10-22T10:53:40;8.23;;;4.83;;
5995;SDS011;3026;53.612;7.278;2022-10-22T10:56:26;9.53;;;4.57;;
5995;SDS011;3026;53.612;7.278;2022-10-22T10:59:03;9.17;;;4.70;;
5995;SDS011;3026;53.612;7.278;2022-10-22T11:01:55;13.20;;;4.50;;
5995;SDS011;3026;53.612;7.278;2022-10-22T11:04:58;19.97;;;5.27;;
5995;SDS011;3026;53.612;7.278;2022-10-22T11:07:46;10.00;;;4.37;;
5995;SDS011;3026;53.612;7.278;2022-10-22T11:10:21;6.47;;;4.10;;
5995;SDS011;3026;53.612;7.278;2022-10-22T11:13:00;11.27;;;4.43;;
5995;SDS011;3026;53.612;7.278;2022-10-22T11:15:51;15.53;;;4.90;;
5995;SDS011;3026;53.612;7.278;2022-10-22T11:18:27;6.40;;;3.57;;
5995;SDS011;3026;53.612;7.278;2022-10-22T11:21:07;9.63;;;3.83;;
5995;SDS011;3026;53.612;7.278;2022-10-22T11:23:47;6.93;;;4.17;;
5995;SDS011;3026;53.612;7.278;2022-10-22T11:26:21;11.83;;;4.17;;
5995;SDS011;3026;53.612;7.278;2022-10-22T11:34:46;13.20;;;3.40;;
5995;SDS011;3026;53.612;7.278;2022-10-22T11:37:23;5.90;;;3.33;;
5995;SDS011;3026;53.612;7.278;2022-10-22T11:40:06;10.33;;;4.10;;
5995;SDS011;3026;53.612;7.278;2022-10-22T11:43:03;8.97;;;3.70;;
5995;SDS011;3026;53.612;7.278;2022-10-22T11:45:35;11.63;;;3.80;;
5995;SDS011;3026;53.612;7.278;2022-10-22T11:48:13;5.73;;;3.57;;
5995;SDS011;3026;53.612;7.278;2022-10-22T11:50:53;9.63;;;3.90;;
5995;SDS011;3026;53.612;7.278;2022-10-22T11:53:51;8.20;;;3.33;;
5995;SDS011;3026;53.612;7.278;2022-10-22T12:00:31;8.97;;;3.50;;
5995;SDS011;3026;53.612;7.278;2022-10-22T12:03:15;9.67;;;3.40;;
5995;SDS011;3026;53.612;7.278;2022-10-22T12:06:04;9.27;;;3.60;;
5995;SDS011;3026;53.612;7.278;2022-10-22T12:09:00;10.07;;;3.70;;
5995;SDS011;3026;53.612;7.278;2022-10-22T12:11:48;8.03;;;3.60;;
5995;SDS011;3026;53.612;7.278;2022-10-22T12:14:21;16.00;;;3.83;;
5995;SDS011;3026;53.612;7.278;2022-10-22T12:17:01;9.93;;;3.90;;
5995;SDS011;3026;53.612;7.278;2022-10-22T12:19:34;7.00;;;3.67;;
5995;SDS011;3026;53.612;7.278;2022-10-22T12:22:10;10.07;;;4.17;;
5995;SDS011;3026;53.612;7.278;2022-10-22T12:24:55;9.23;;;3.83;;
5995;SDS011;3026;53.612;7.278;2022-10-22T12:27:27;10.70;;;4.07;;
5995;SDS011;3026;53.612;7.278;2022-10-22T12:30:02;11.33;;;4.33;;
5995;SDS011;3026;53.612;7.278;2022-10-22T12:32:43;18.30;;;4.70;;
5995;SDS011;3026;53.612;7.278;2022-10-22T12:35:14;6.97;;;4.00;;
5995;SDS011;3026;53.612;7.278;2022-10-22T12:37:43;7.27;;;4.17;;
5995;SDS011;3026;53.612;7.278;2022-10-22T12:40:17;9.50;;;4.20;;
5995;SDS011;3026;53.612;7.278;2022-10-22T12:42:46;6.50;;;4.07;;
5995;SDS011;3026;53.612;7.278;2022-10-22T12:45:16;9.20;;;5.03;;
5995;SDS011;3026;53.612;7.278;2022-10-22T12:47:45;11.33;;;4.03;;
5995;SDS011;3026;53.612;7.278;2022-10-22T12:50:17;9.20;;;4.10;;
5995;SDS011;3026;53.612;7.278;2022-10-22T12:52:51;7.80;;;3.70;;
5995;SDS011;3026;53.612;7.278;2022-10-22T12:55:21;10.43;;;4.40;;
5995;SDS011;3026;53.612;7.278;2022-10-22T12:57:50;7.77;;;3.53;;
5995;SDS011;3026;53.612;7.278;2022-10-22T13:00:23;8.33;;;3.60;;
5995;SDS011;3026;53.612;7.278;2022-10-22T13:02:53;7.03;;;3.50;;
5995;SDS011;3026;53.612;7.278;2022-10-22T13:05:29;9.47;;;3.40;;
5995;SDS011;3026;53.612;7.278;2022-10-22T13:08:03;6.90;;;3.27;;
5995;SDS011;3026;53.612;7.278;2022-10-22T13:10:35;6.07;;;3.43;;
5995;SDS011;3026;53.612;7.278;2022-10-22T13:13:04;5.77;;;3.30;;
5995;SDS011;3026;53.612;7.278;2022-10-22T13:15:36;8.07;;;3.73;;
5995;SDS011;3026;53.612;7.278;2022-10-22T13:18:17;6.87;;;3.93;;
5995;SDS011;3026;53.612;7.278;2022-10-22T13:20:50;9.17;;;4.40;;
5995;SDS011;3026;53.612;7.278;2022-10-22T13:23:22;10.93;;;4.10;;
5995;SDS011;3026;53.612;7.278;2022-10-22T13:25:59;7.07;;;4.33;;
5995;SDS011;3026;53.612;7.278;2022-10-22T13:28:29;6.67;;;4.10;;
5995;SDS011;3026;53.612;7.278;2022-10-22T13:30:59;8.47;;;4.87;;
5995;SDS011;3026;53.612;7.278;2022-10-22T13:33:28;9.30;;;4.57;;
5995;SDS011;3026;53.612;7.278;2022-10-22T13:35:59;9.93;;;4.80;;
5995;SDS011;3026;53.612;7.278;2022-10-22T13:38:27;6.30;;;4.30;;
5995;SDS011;3026;53.612;7.278;2022-10-22T13:40:54;6.53;;;4.27;;
5995;SDS011;3026;53.612;7.278;2022-10-22T13:43:23;7.80;;;4.60;;
5995;SDS011;3026;53.612;7.278;2022-10-22T13:45:51;5.33;;;4.10;;
5995;SDS011;3026;53.612;7.278;2022-10-22T13:48:22;7.53;;;4.23;;
5995;SDS011;3026;53.612;7.278;2022-10-22T13:50:51;7.20;;;4.33;;
5995;SDS011;3026;53.612;7.278;2022-10-22T13:53:19;7.53;;;4.80;;
5995;SDS011;3026;53.612;7.278;2022-10-22T13:55:49;4.97;;;4.40;;
5995;SDS011;3026;53.612;7.278;2022-10-22T13:58:19;6.93;;;4.30;;
5995;SDS011;3026;53.612;7.278;2022-10-22T14:00:49;6.67;;;5.00;;
5995;SDS011;3026;53.612;7.278;2022-10-22T14:03:19;7.63;;;4.20;;
5995;SDS011;3026;53.612;7.278;2022-10-22T14:05:54;12.53;;;4.10;;
5995;SDS011;3026;53.612;7.278;2022-10-22T14:08:21;7.30;;;2.83;;
5995;SDS011;3026;53.612;7.278;2022-10-22T14:10:50;4.87;;;2.63;;
5995;SDS011;3026;53.612;7.278;2022-10-22T14:13:18;5.57;;;2.67;;
5995;SDS011;3026;53.612;7.278;2022-10-22T14:15:46;5.50;;;1.97;;
5995;SDS011;3026;53.612;7.278;2022-10-22T14:18:17;4.87;;;2.43;;
5995;SDS011;3026;53.612;7.278;2022-10-22T14:20:51;4.00;;;2.50;;
5995;SDS011;3026;53.612;7.278;2022-10-22T14:23:21;3.83;;;2.50;;
5995;SDS011;3026;53.612;7.278;2022-10-22T14:25:50;13.37;;;3.20;;
5995;SDS011;3026;53.612;7.278;2022-10-22T14:28:17;7.50;;;3.37;;
5995;SDS011;3026;53.612;7.278;2022-10-22T14:30:45;7.00;;;3.13;;
5995;SDS011;3026;53.612;7.278;2022-10-22T14:33:14;5.50;;;3.43;;
5995;SDS011;3026;53.612;7.278;2022-10-22T14:35:42;5.13;;;2.87;;
5995;SDS011;3026;53.612;7.278;2022-10-22T14:38:11;7.83;;;2.63;;
5995;SDS011;3026;53.612;7.278;2022-10-22T14:40:38;7.20;;;2.83;;
5995;SDS011;3026;53.612;7.278;2022-10-22T14:43:18;5.87;;;2.80;;
5995;SDS011;3026;53.612;7.278;2022-10-22T14:46:04;7.70;;;2.90;;
5995;SDS011;3026;53.612;7.278;2022-10-22T14:48:59;5.13;;;2.63;;
5995;SDS011;3026;53.612;7.278;2022-10-22T14:52:01;10.63;;;3.10;;
5995;SDS011;3026;53.612;7.278;2022-10-22T14:54:30;10.97;;;4.63;;
5995;SDS011;3026;53.612;7.278;2022-10-22T14:56:58;8.80;;;3.27;;
5995;SDS011;3026;53.612;7.278;2022-10-22T15:12:54;9.07;;;2.43;;
5995;SDS011;3026;53.612;7.278;2022-10-22T15:15:24;8.53;;;2.63;;
5995;SDS011;3026;53.612;7.278;2022-10-22T15:23:32;4.33;;;2.03;;
5995;SDS011;3026;53.612;7.278;2022-10-22T15:26:05;4.63;;;1.73;;
5995;SDS011;3026;53.612;7.278;2022-10-22T15:28:34;3.20;;;1.83;;
5995;SDS011;3026;53.612;7.278;2022-10-22T15:31:02;6.43;;;2.20;;
5995;SDS011;3026;53.612;7.278;2022-10-22T15:33:29;6.33;;;2.67;;
5995;SDS011;3026;53.612;7.278;2022-10-22T15:35:56;4.80;;;2.07;;
5995;SDS011;3026;53.612;7.278;2022-10-22T15:38:34;5.87;;;2.70;;
5995;SDS011;3026;53.612;7.278;2022-10-22T15:41:02;5.27;;;1.90;;
5995;SDS011;3026;53.612;7.278;2022-10-22T15:43:29;9.87;;;4.23;;
5995;SDS011;3026;53.612;7.278;2022-10-22T15:46:06;9.80;;;3.40;;
5995;SDS011;3026;53.612;7.278;2022-10-22T15:48:36;8.90;;;2.33;;
5995;SDS011;3026;53.612;7.278;2022-10-22T15:51:07;6.87;;;2.00;;
5995;SDS011;3026;53.612;7.278;2022-10-22T15:53:35;4.50;;;2.13;;
5995;SDS011;3026;53.612;7.278;2022-10-22T15:56:03;5.33;;;1.77;;
5995;SDS011;3026;53.612;7.278;2022-10-22T15:58:30;6.60;;;1.93;;
5995;SDS011;3026;53.612;7.278;2022-10-22T16:01:02;4.13;;;1.97;;
5995;SDS011;3026;53.612;7.278;2022-10-22T16:03:32;5.50;;;2.00;;
5995;SDS011;3026;53.612;7.278;2022-10-22T16:05:59;5.53;;;1.83;;
5995;SDS011;3026;53.612;7.278;2022-10-22T16:08:26;6.63;;;1.93;;
5995;SDS011;3026;53.612;7.278;2022-10-22T16:10:53;6.70;;;1.70;;
5995;SDS011;3026;53.612;7.278;2022-10-22T16:13:20;3.43;;;1.80;;
5995;SDS011;3026;53.612;7.278;2022-10-22T16:15:48;5.40;;;1.83;;
5995;SDS011;3026;53.612;7.278;2022-10-22T16:18:17;6.33;;;2.33;;
5995;SDS011;3026;53.612;7.278;2022-10-22T16:20:44;6.67;;;2.17;;
5995;SDS011;3026;53.612;7.278;2022-10-22T16:23:12;6.57;;;2.20;;
5995;SDS011;3026;53.612;7.278;2022-10-22T16:25:42;5.30;;;1.93;;
5995;SDS011;3026;53.612;7.278;2022-10-22T16:28:10;3.70;;;2.10;;
5995;SDS011;3026;53.612;7.278;2022-10-22T16:30:37;7.43;;;2.27;;
5995;SDS011;3026;53.612;7.278;2022-10-22T16:33:06;6.63;;;2.27;;
5995;SDS011;3026;53.612;7.278;2022-10-22T16:35:37;7.10;;;1.90;;
5995;SDS011;3026;53.612;7.278;2022-10-22T16:38:05;3.40;;;1.90;;
5995;SDS011;3026;53.612;7.278;2022-10-22T16:40:32;4.60;;;1.80;;
5995;SDS011;3026;53.612;7.278;2022-10-22T16:42:59;8.00;;;2.67;;
5995;SDS011;3026;53.612;7.278;2022-10-22T16:45:26;5.07;;;2.57;;
5995;SDS011;3026;53.612;7.278;2022-10-22T16:47:53;8.07;;;2.07;;
5995;SDS011;3026;53.612;7.278;2022-10-22T16:50:20;8.47;;;1.90;;